Time;durP1;ratioP1;P1;durP2;ratioP2;P2;SDS_P1;SDS_P2;PMS_P1;PMS_P2;Temp;Humidity;BMP_temperature;BMP_pressure;BME280_temperature;BME280_humidity;BME280_pressure;Samples;Min_cycle;Max_cycle;Signal;HPM_P1;HPM_P2
2022/10/14 00:01:14;;;;;;;41.22;23.50;;;15.60;99.90;;;;;;4896253;29;20044;-79
2022/10/14 00:03:41;;;;;;;39.20;23.38;;;15.60;99.90;;;;;;4896433;29;20098;-79
2022/10/14 00:06:13;;;;;;;38.25;22.25;;;15.50;99.90;;;;;;4895901;29;20049;-79
2022/10/14 00:08:40;;;;;;;36.25;23.80;;;15.50;99.90;;;;;;4896388;29;20032;-79
2022/10/14 00:11:08;;;;;;;41.10;24.10;;;15.50;99.90;;;;;;4896337;29;20392;-80
2022/10/14 00:13:34;;;;;;;41.92;22.60;;;15.50;99.90;;;;;;4896554;29;20031;-79
2022/10/14 00:16:01;;;;;;;39.92;24.30;;;15.50;99.90;;;;;;4896536;29;20380;-78
2022/10/14 00:18:27;;;;;;;41.75;23.27;;;15.50;99.90;;;;;;4896119;29;20033;-79
2022/10/14 00:21:00;;;;;;;44.38;24.25;;;15.40;99.90;;;;;;4879636;29;20029;-78
2022/10/14 00:23:26;;;;;;;43.20;24.40;;;15.40;99.90;;;;;;4879300;29;20025;-79
2022/10/14 00:25:53;;;;;;;40.80;22.92;;;15.40;99.90;;;;;;4896398;29;20033;-79
2022/10/14 00:28:19;;;;;;;43.92;25.33;;;15.40;99.90;;;;;;4898163;29;20029;-79
2022/10/14 00:30:58;;;;;;;42.58;25.88;;;15.40;99.90;;;;;;4899626;29;20459;-79
2022/10/14 00:33:25;;;;;;;47.53;24.25;;;15.40;99.90;;;;;;4882868;29;20771;-79
2022/10/14 00:35:59;;;;;;;43.65;24.60;;;15.40;99.90;;;;;;4899543;29;20128;-79
2022/10/14 00:38:25;;;;;;;42.10;24.75;;;15.40;99.90;;;;;;4899553;29;20056;-78
2022/10/14 00:40:52;;;;;;;41.78;25.38;;;15.40;99.90;;;;;;4899376;29;20025;-79
2022/10/14 00:43:19;;;;;;;41.17;24.60;;;15.30;99.90;;;;;;4882616;29;20032;-79
2022/10/14 00:45:44;;;;;;;45.03;24.95;;;15.40;99.90;;;;;;4882084;29;20033;-79
2022/10/14 00:48:11;;;;;;;41.60;25.08;;;15.40;99.90;;;;;;4899280;29;20025;-79
2022/10/14 00:50:40;;;;;;;46.80;24.08;;;15.30;99.90;;;;;;4899226;29;20036;-79
2022/10/14 00:53:05;;;;;;;43.28;24.90;;;15.40;99.90;;;;;;4899418;29;20092;-79
2022/10/14 00:55:36;;;;;;;42.65;25.08;;;15.30;99.90;;;;;;4898964;29;20475;-80
2022/10/14 00:58:02;;;;;;;41.25;25.20;;;15.30;99.90;;;;;;4899156;29;20032;-79
2022/10/14 01:00:28;;;;;;;44.10;25.55;;;15.30;99.90;;;;;;4899060;29;20020;-79
2022/10/14 01:02:55;;;;;;;46.97;25.40;;;15.30;99.90;;;;;;4899070;29;20032;-79
2022/10/14 01:05:21;;;;;;;42.67;25.55;;;15.30;99.90;;;;;;4898869;29;20064;-79
2022/10/14 01:08:04;;;;;;;40.78;25.08;;;15.30;99.90;;;;;;4898950;29;20025;-79
2022/10/14 01:10:36;;;;;;;46.17;26.40;;;15.30;99.90;;;;;;4898975;29;20440;-79
2022/10/14 01:13:26;;;;;;;45.38;25.50;;;15.30;99.90;;;;;;4898974;29;20029;-79
2022/10/14 01:15:57;;;;;;;49.00;25.45;;;15.30;99.90;;;;;;4898621;29;20033;-79
2022/10/14 01:18:32;;;;;;;45.72;25.25;;;15.30;99.90;;;;;;4898771;29;20059;-79
2022/10/14 01:21:00;;;;;;;41.13;26.27;;;15.30;99.90;;;;;;4898754;29;20036;-78
2022/10/14 01:23:45;;;;;;;38.97;24.65;;;15.30;99.90;;;;;;4881675;29;20368;-79
2022/10/14 01:26:35;;;;;;;47.75;25.73;;;15.30;99.90;;;;;;4898832;29;20487;-79
2022/10/14 01:29:29;;;;;;;42.90;25.35;;;15.30;99.90;;;;;;4898821;29;20028;-79
2022/10/14 01:32:08;;;;;;;44.72;25.38;;;15.30;99.90;;;;;;4854702;29;20052;-79
2022/10/14 01:34:41;;;;;;;46.95;25.45;;;15.30;99.90;;;;;;4898442;29;20036;-78
2022/10/14 01:37:18;;;;;;;44.53;25.00;;;15.20;99.90;;;;;;4898467;29;20029;-79
2022/10/14 01:39:49;;;;;;;43.72;24.83;;;15.20;99.90;;;;;;4897683;29;20427;-79
2022/10/14 01:42:22;;;;;;;45.72;25.83;;;15.20;99.90;;;;;;4898351;29;20119;-79
2022/10/14 01:44:53;;;;;;;48.90;26.63;;;15.20;99.90;;;;;;4898336;29;20039;-79
2022/10/14 01:47:21;;;;;;;45.25;26.98;;;15.20;99.90;;;;;;4898281;29;20033;-79
2022/10/14 01:49:54;;;;;;;46.53;25.02;;;15.20;99.90;;;;;;4881355;29;20448;-79
2022/10/14 01:52:26;;;;;;;44.40;25.30;;;15.20;99.90;;;;;;4898149;29;20035;-79
2022/10/14 01:54:55;;;;;;;47.55;27.30;;;15.20;99.90;;;;;;4880870;29;20136;-79
2022/10/14 01:57:26;;;;;;;48.38;26.92;;;15.20;99.90;;;;;;4898049;29;20498;-79
2022/10/14 01:59:54;;;;;;;46.33;27.33;;;15.10;99.90;;;;;;4881215;29;20065;-79
2022/10/14 02:02:20;;;;;;;46.78;25.38;;;15.10;99.90;;;;;;4898128;29;20542;-79
2022/10/14 02:04:46;;;;;;;49.05;27.17;;;15.10;99.90;;;;;;4898101;29;20024;-79
2022/10/14 02:07:21;;;;;;;49.75;27.25;;;15.10;99.90;;;;;;4898063;29;20506;-79
2022/10/14 02:10:22;;;;;;;50.17;27.58;;;15.10;99.90;;;;;;4898058;29;20028;-79
2022/10/14 02:13:00;;;;;;;43.17;26.05;;;15.10;99.90;;;;;;4897776;29;20035;-79
2022/10/14 02:15:59;;;;;;;48.10;28.02;;;15.10;99.90;;;;;;4897901;29;20570;-79
2022/10/14 02:18:40;;;;;;;48.80;26.92;;;15.10;99.90;;;;;;4897860;29;20029;-79
2022/10/14 02:21:28;;;;;;;50.00;27.08;;;15.10;99.90;;;;;;4897584;29;20031;-79
2022/10/14 02:24:06;;;;;;;40.65;25.90;;;15.10;99.90;;;;;;4897669;29;20483;-79
2022/10/14 02:26:33;;;;;;;42.92;25.98;;;15.00;99.90;;;;;;4897672;29;20390;-79
2022/10/14 02:29:02;;;;;;;45.80;26.85;;;15.00;99.90;;;;;;4897578;29;20028;-79
2022/10/14 02:31:29;;;;;;;46.70;25.00;;;15.00;99.90;;;;;;4897397;29;20116;-79
2022/10/14 02:34:01;;;;;;;43.33;24.75;;;15.00;99.90;;;;;;4880692;29;20123;-79
2022/10/14 02:36:28;;;;;;;45.03;26.00;;;15.00;99.90;;;;;;4880098;29;20403;-78
2022/10/14 02:38:57;;;;;;;47.40;25.83;;;15.00;99.90;;;;;;4880541;29;20056;-79
2022/10/14 02:41:29;;;;;;;46.70;25.73;;;15.00;99.90;;;;;;4897392;29;20017;-79
2022/10/14 02:43:54;;;;;;;46.85;26.08;;;15.10;99.90;;;;;;4897310;29;20029;-79
2022/10/14 02:46:21;;;;;;;47.03;26.80;;;15.10;99.90;;;;;;4897226;29;20541;-79
2022/10/14 02:48:48;;;;;;;42.85;24.98;;;15.10;99.90;;;;;;4897122;29;20036;-79
2022/10/14 02:51:14;;;;;;;44.65;25.58;;;15.10;99.90;;;;;;4897103;29;20029;-79
2022/10/14 02:53:39;;;;;;;43.97;25.65;;;15.10;99.90;;;;;;4897217;29;20028;-78
2022/10/14 02:56:05;;;;;;;44.88;24.90;;;15.10;99.90;;;;;;4897097;29;20033;-78
2022/10/14 02:58:31;;;;;;;43.60;25.25;;;15.10;99.90;;;;;;4880202;29;20029;-79
2022/10/14 03:00:57;;;;;;;43.08;25.67;;;15.10;99.90;;;;;;4896957;29;20024;-80
2022/10/14 03:03:23;;;;;;;41.70;25.77;;;15.10;99.90;;;;;;4896764;29;20017;-79
2022/10/14 03:05:49;;;;;;;42.47;25.33;;;15.00;99.90;;;;;;4896920;29;20104;-79
2022/10/14 03:08:14;;;;;;;48.70;26.60;;;15.00;99.90;;;;;;4897004;29;20470;-79
2022/10/14 03:10:40;;;;;;;47.35;25.20;;;15.00;99.90;;;;;;4896620;29;20036;-80
2022/10/14 03:13:06;;;;;;;44.63;24.70;;;15.00;99.90;;;;;;4896930;29;20032;-79
2022/10/14 03:15:31;;;;;;;47.70;26.98;;;15.00;99.90;;;;;;4896797;29;20402;-79
2022/10/14 03:17:57;;;;;;;44.92;25.55;;;15.00;99.90;;;;;;4896614;29;20017;-79
2022/10/14 03:20:23;;;;;;;46.70;26.15;;;15.00;99.90;;;;;;4896879;29;20088;-79
2022/10/14 03:22:48;;;;;;;50.92;26.48;;;15.00;99.90;;;;;;4896496;29;20072;-79
2022/10/14 03:25:15;;;;;;;44.83;26.27;;;14.90;99.90;;;;;;4879906;29;20506;-79
2022/10/14 03:27:40;;;;;;;43.55;24.95;;;14.90;99.90;;;;;;4880103;29;20013;-79
2022/10/14 03:30:07;;;;;;;46.38;25.98;;;14.90;99.90;;;;;;4896654;29;20033;-79
2022/10/14 03:32:33;;;;;;;45.05;26.02;;;14.90;99.90;;;;;;4896574;29;20016;-79
2022/10/14 03:34:58;;;;;;;47.25;26.45;;;14.90;99.90;;;;;;4896756;29;20172;-80
2022/10/14 03:37:27;;;;;;;43.80;26.88;;;14.90;99.90;;;;;;4879696;29;20071;-79
2022/10/14 03:39:53;;;;;;;45.47;24.75;;;14.90;99.90;;;;;;4896588;29;20510;-79
2022/10/14 03:42:18;;;;;;;51.97;27.50;;;14.90;99.90;;;;;;4896571;29;20028;-79
2022/10/14 03:44:45;;;;;;;47.97;26.85;;;14.90;99.90;;;;;;4896608;29;20080;-79
2022/10/14 03:47:10;;;;;;;45.45;25.80;;;14.90;99.90;;;;;;4896381;29;20479;-80
2022/10/14 03:49:36;;;;;;;48.35;27.23;;;14.90;99.90;;;;;;4879617;29;20044;-79
2022/10/14 03:52:02;;;;;;;44.13;27.00;;;14.90;99.90;;;;;;4879615;29;20024;-79
2022/10/14 03:54:27;;;;;;;47.08;25.92;;;14.90;99.90;;;;;;4896061;29;20508;-79
2022/10/14 03:56:53;;;;;;;47.42;25.58;;;14.90;99.90;;;;;;4896441;29;20029;-78
2022/10/14 03:59:19;;;;;;;43.63;24.83;;;14.90;99.90;;;;;;4896332;29;20282;-79
2022/10/14 04:01:44;;;;;;;43.47;25.35;;;14.90;99.90;;;;;;4896281;29;20031;-79
2022/10/14 04:04:10;;;;;;;44.60;24.98;;;14.90;99.90;;;;;;4883162;29;20394;-79
2022/10/14 04:06:36;;;;;;;46.97;25.73;;;14.90;99.90;;;;;;4882996;29;20139;-79
2022/10/14 04:09:03;;;;;;;43.35;25.92;;;14.90;99.90;;;;;;4899929;29;20039;-79
2022/10/14 04:11:29;;;;;;;48.83;26.05;;;14.90;99.90;;;;;;4900160;29;20024;-79
2022/10/14 04:13:58;;;;;;;39.95;24.95;;;14.90;99.90;;;;;;4899799;29;20163;-80
2022/10/14 04:16:25;;;;;;;41.05;25.60;;;14.90;99.90;;;;;;4882637;29;20364;-79
2022/10/14 04:18:52;;;;;;;47.63;25.05;;;14.90;99.90;;;;;;4899821;29;20474;-79
2022/10/14 04:21:17;;;;;;;43.25;24.83;;;14.90;99.90;;;;;;4883053;29;20035;-80
2022/10/14 04:23:43;;;;;;;44.50;24.13;;;14.90;99.90;;;;;;4899887;29;20639;-79
2022/10/14 04:26:09;;;;;;;41.97;24.27;;;14.80;99.90;;;;;;4899769;29;20033;-79
2022/10/14 04:28:35;;;;;;;44.75;24.65;;;14.80;99.90;;;;;;4899672;29;20032;-79
2022/10/14 04:31:01;;;;;;;45.88;24.98;;;14.80;99.90;;;;;;4882617;29;20120;-79
2022/10/14 04:33:27;;;;;;;39.80;23.67;;;14.70;99.90;;;;;;4899519;29;20032;-79
2022/10/14 04:36:01;;;;;;;41.70;23.60;;;14.70;99.90;;;;;;4882668;29;20444;-79
2022/10/14 04:38:27;;;;;;;45.13;24.38;;;14.70;99.90;;;;;;4898791;29;20262;-79
2022/10/14 04:40:54;;;;;;;46.08;25.05;;;14.70;99.90;;;;;;4899386;29;20115;-79
2022/10/14 04:43:20;;;;;;;43.20;22.83;;;14.70;99.90;;;;;;4898603;29;20032;-79
2022/10/14 04:45:46;;;;;;;38.95;22.30;;;14.70;99.90;;;;;;4898326;29;20025;-79
2022/10/14 04:48:11;;;;;;;42.08;23.42;;;14.70;99.90;;;;;;4895604;29;20021;-79
2022/10/14 04:50:37;;;;;;;40.08;22.48;;;14.70;99.90;;;;;;4881401;29;20060;-79
2022/10/14 04:53:03;;;;;;;41.50;22.15;;;14.70;99.90;;;;;;4898598;29;20100;-79
2022/10/14 04:55:28;;;;;;;41.17;22.55;;;14.60;99.90;;;;;;4898483;29;20037;-79
2022/10/14 04:57:54;;;;;;;41.78;23.80;;;14.60;99.90;;;;;;4897981;29;20024;-79
2022/10/14 05:00:20;;;;;;;42.30;22.52;;;14.60;99.90;;;;;;4881140;29;20039;-79
2022/10/14 05:02:46;;;;;;;36.55;21.95;;;14.60;99.90;;;;;;4881024;29;20157;-79
2022/10/14 05:05:13;;;;;;;38.45;22.35;;;14.60;99.90;;;;;;4897697;29;20493;-79
2022/10/14 05:07:40;;;;;;;41.13;22.48;;;14.60;99.90;;;;;;4897829;29;20020;-79
2022/10/14 05:10:08;;;;;;;40.75;21.85;;;14.60;99.90;;;;;;4880866;29;20036;-79
2022/10/14 05:12:35;;;;;;;42.78;22.45;;;14.60;99.90;;;;;;4897872;29;20028;-79
2022/10/14 05:15:00;;;;;;;36.55;22.63;;;14.50;99.90;;;;;;4897767;29;20047;-79
2022/10/14 05:17:26;;;;;;;35.63;22.05;;;14.50;99.90;;;;;;4898802;29;20539;-79
2022/10/14 05:19:52;;;;;;;42.53;21.77;;;14.50;99.90;;;;;;4898687;29;20054;-80
2022/10/14 05:22:17;;;;;;;39.80;23.05;;;14.50;99.90;;;;;;4898891;29;20395;-80
2022/10/14 05:24:43;;;;;;;41.33;23.33;;;14.50;99.90;;;;;;4898598;29;20060;-79
2022/10/14 05:27:12;;;;;;;46.85;23.45;;;14.50;99.90;;;;;;4898583;29;20032;-79
2022/10/14 05:29:40;;;;;;;41.00;21.63;;;14.50;99.90;;;;;;4896430;29;20033;-79
2022/10/14 05:32:09;;;;;;;34.00;21.00;;;14.50;99.90;;;;;;4894709;29;20040;-79
2022/10/14 05:34:35;;;;;;;39.30;20.38;;;14.50;99.90;;;;;;4896920;29;20101;-79
2022/10/14 05:37:01;;;;;;;32.90;19.80;;;14.40;99.90;;;;;;4896530;29;20028;-78
2022/10/14 05:39:27;;;;;;;36.55;21.23;;;14.50;99.90;;;;;;4896531;29;20490;-79
2022/10/14 05:41:53;;;;;;;36.85;21.23;;;14.50;99.90;;;;;;4896666;29;20024;-79
2022/10/14 05:44:18;;;;;;;37.47;21.05;;;14.50;99.90;;;;;;4897442;29;20096;-79
2022/10/14 05:46:44;;;;;;;34.03;19.75;;;14.50;99.90;;;;;;4898388;29;20039;-79
2022/10/14 05:49:10;;;;;;;35.30;21.67;;;14.50;99.90;;;;;;4881259;29;20544;-79
2022/10/14 05:51:36;;;;;;;40.15;19.77;;;14.50;99.90;;;;;;4898262;29;20039;-80
2022/10/14 05:54:02;;;;;;;32.25;20.20;;;14.50;99.90;;;;;;4898080;29;20068;-79
2022/10/14 05:56:28;;;;;;;35.03;20.17;;;14.50;99.90;;;;;;4889617;29;20064;-79
2022/10/14 05:58:54;;;;;;;38.28;19.90;;;14.50;99.90;;;;;;4893323;29;20487;-79
2022/10/14 06:01:19;;;;;;;35.45;19.30;;;14.50;99.90;;;;;;4897944;29;20452;-79
2022/10/14 06:03:49;;;;;;;36.17;20.33;;;14.50;99.90;;;;;;4897544;29;20029;-79
2022/10/14 06:06:16;;;;;;;39.03;20.00;;;14.50;99.90;;;;;;4897146;29;20057;-79
2022/10/14 06:08:42;;;;;;;31.52;19.20;;;14.60;99.90;;;;;;4897961;29;20034;-80
2022/10/14 06:11:08;;;;;;;31.95;19.65;;;14.50;99.90;;;;;;4897714;29;20092;-79
2022/10/14 06:13:34;;;;;;;38.63;19.58;;;14.50;99.90;;;;;;4897847;29;20428;-79
2022/10/14 06:16:04;;;;;;;33.05;19.50;;;14.50;99.90;;;;;;4897116;29;20046;-79
2022/10/14 06:18:31;;;;;;;33.15;19.73;;;14.50;99.90;;;;;;4897626;29;20028;-79
2022/10/14 06:20:56;;;;;;;35.47;19.98;;;14.50;99.90;;;;;;4897527;29;20088;-79
2022/10/14 06:23:22;;;;;;;35.55;19.73;;;14.50;99.90;;;;;;4882081;29;20503;-79
2022/10/14 06:25:48;;;;;;;34.58;19.30;;;14.60;99.90;;;;;;4898358;29;20033;-79
2022/10/14 06:28:13;;;;;;;36.05;19.77;;;14.60;99.90;;;;;;4898794;29;20080;-79
2022/10/14 06:30:39;;;;;;;33.40;20.50;;;14.60;99.90;;;;;;4898613;29;20459;-79
2022/10/14 06:33:05;;;;;;;31.60;19.25;;;14.60;99.90;;;;;;4897941;29;20032;-79
2022/10/14 06:35:30;;;;;;;38.42;20.77;;;14.70;99.90;;;;;;4881532;29;20028;-79
2022/10/14 06:37:56;;;;;;;36.08;19.23;;;14.70;99.90;;;;;;4898389;29;20372;-80
2022/10/14 06:40:22;;;;;;;34.03;19.77;;;14.70;99.90;;;;;;4898414;29;20033;-80
2022/10/14 06:42:52;;;;;;;33.15;19.85;;;14.80;99.90;;;;;;4898444;29;20088;-79
2022/10/14 06:45:18;;;;;;;34.50;18.80;;;14.80;99.90;;;;;;4898420;29;20020;-80
2022/10/14 06:47:43;;;;;;;33.20;19.65;;;14.80;99.90;;;;;;4898147;29;20083;-79
2022/10/14 06:50:09;;;;;;;34.47;19.98;;;14.90;99.90;;;;;;4881376;29;20119;-80
2022/10/14 06:52:35;;;;;;;32.67;19.52;;;14.90;99.90;;;;;;4898477;29;20032;-79
2022/10/14 06:55:00;;;;;;;35.42;19.38;;;15.00;99.90;;;;;;4897937;29;20483;-80
2022/10/14 06:57:26;;;;;;;34.97;19.95;;;15.00;99.90;;;;;;4898219;29;20037;-79
2022/10/14 06:59:52;;;;;;;32.20;19.20;;;15.00;99.90;;;;;;4898064;29;20060;-79
2022/10/14 07:02:17;;;;;;;32.38;19.33;;;15.10;99.90;;;;;;4898349;29;20028;-79
2022/10/14 07:04:43;;;;;;;33.20;19.35;;;15.10;99.90;;;;;;4898288;29;20035;-80
2022/10/14 07:07:09;;;;;;;35.83;20.80;;;15.20;99.90;;;;;;4881132;29;20049;-79
2022/10/14 07:09:35;;;;;;;33.13;19.73;;;15.20;99.90;;;;;;4897924;29;20029;-80
2022/10/14 07:12:01;;;;;;;36.65;19.92;;;15.30;99.90;;;;;;4898205;29;20115;-79
2022/10/14 07:14:27;;;;;;;36.30;20.88;;;15.40;99.90;;;;;;4881199;29;20024;-80
2022/10/14 07:16:52;;;;;;;38.17;20.52;;;15.40;99.90;;;;;;4885020;29;20040;-79
2022/10/14 07:19:18;;;;;;;34.40;19.77;;;15.50;99.90;;;;;;4862624;29;20120;-79
2022/10/14 07:21:47;;;;;;;32.92;20.50;;;15.50;99.90;;;;;;4879313;29;20444;-80
2022/10/14 07:24:12;;;;;;;37.78;19.35;;;15.60;99.90;;;;;;4862419;29;20029;-80
2022/10/14 07:26:38;;;;;;;37.33;21.13;;;15.60;99.90;;;;;;4862614;29;20472;-79
2022/10/14 07:29:05;;;;;;;30.40;19.17;;;15.70;99.90;;;;;;4881744;29;20025;-80
2022/10/14 07:31:31;;;;;;;34.70;20.20;;;15.70;99.90;;;;;;4881047;29;20033;-80
2022/10/14 07:33:58;;;;;;;36.58;21.98;;;15.80;99.90;;;;;;4897776;29;20029;-79
2022/10/14 07:36:24;;;;;;;35.20;20.10;;;15.90;99.90;;;;;;4880928;29;20435;-80
2022/10/14 07:38:50;;;;;;;34.65;21.35;;;15.90;99.90;;;;;;4883970;29;20029;-80
2022/10/14 07:41:19;;;;;;;39.70;20.85;;;16.00;99.90;;;;;;4901876;29;20036;-80
2022/10/14 07:43:47;;;;;;;41.78;22.15;;;16.10;99.90;;;;;;4884930;29;20024;-79
2022/10/14 07:46:13;;;;;;;40.55;21.35;;;16.20;99.90;;;;;;4901632;29;20025;-79
2022/10/14 07:48:39;;;;;;;36.05;21.30;;;16.20;99.90;;;;;;4901154;29;20103;-80
2022/10/14 07:51:09;;;;;;;37.75;22.10;;;16.30;99.90;;;;;;4884401;29;20032;-80
2022/10/14 07:53:35;;;;;;;46.90;25.50;;;16.40;99.90;;;;;;4901208;29;20056;-80
2022/10/14 07:56:02;;;;;;;42.53;24.05;;;16.40;99.90;;;;;;4884209;29;20111;-80
2022/10/14 07:58:30;;;;;;;51.83;28.00;;;16.50;99.90;;;;;;4900964;29;20141;-77
2022/10/14 08:00:57;;;;;;;50.53;26.75;;;16.50;99.90;;;;;;4901084;29;20021;-79
2022/10/14 08:03:23;;;;;;;51.38;29.48;;;16.60;99.90;;;;;;4901252;29;20084;-79
2022/10/14 08:05:49;;;;;;;54.53;29.65;;;16.70;99.90;;;;;;4883429;29;20036;-78
2022/10/14 08:08:17;;;;;;;60.22;29.77;;;16.70;99.90;;;;;;4900487;29;20042;-79
2022/10/14 08:10:43;;;;;;;53.20;29.42;;;16.70;99.90;;;;;;4900313;29;20021;-79
2022/10/14 08:13:09;;;;;;;53.72;28.52;;;16.80;99.90;;;;;;4900877;29;20033;-76
2022/10/14 08:15:42;;;;;;;52.83;30.02;;;16.90;99.90;;;;;;4900974;29;20031;-77
2022/10/14 08:18:09;;;;;;;58.75;29.48;;;17.00;99.90;;;;;;4901057;29;20436;-76
2022/10/14 08:20:35;;;;;;;57.63;30.73;;;17.10;99.90;;;;;;4900386;29;20103;-76
2022/10/14 08:23:01;;;;;;;50.92;29.00;;;17.10;99.90;;;;;;4901077;29;20112;-79
2022/10/14 08:25:27;;;;;;;55.30;30.92;;;17.10;99.90;;;;;;4901038;29;20723;-76
2022/10/14 08:27:56;;;;;;;62.83;32.08;;;17.20;99.90;;;;;;4884132;29;20111;-76
2022/10/14 08:30:22;;;;;;;61.20;31.98;;;17.20;99.90;;;;;;4900388;29;20024;-76
2022/10/14 08:32:47;;;;;;;60.53;31.15;;;17.30;99.90;;;;;;4899523;29;20082;-75
2022/10/14 08:35:13;;;;;;;56.75;29.77;;;17.30;99.90;;;;;;4900752;29;20491;-76
2022/10/14 08:37:39;;;;;;;60.33;30.48;;;17.30;99.90;;;;;;4900174;29;20116;-77
2022/10/14 08:40:05;;;;;;;54.78;31.48;;;17.30;99.90;;;;;;4899970;29;20020;-77
2022/10/14 08:43:16;;;;;;;60.33;31.52;;;17.40;99.90;;;;;;4899610;29;20024;-77
2022/10/14 08:45:48;;;;;;;51.65;29.52;;;17.40;99.90;;;;;;4823565;29;20513;-76
2022/10/14 08:48:21;;;;;;;57.72;30.70;;;17.50;99.90;;;;;;4821718;29;20077;-77
2022/10/14 08:50:54;;;;;;;54.80;30.02;;;17.50;99.90;;;;;;4866654;29;20096;-79
2022/10/14 08:53:27;;;;;;;59.53;30.70;;;17.60;99.90;;;;;;4894221;29;20061;-77
2022/10/14 08:55:59;;;;;;;55.60;29.88;;;17.60;99.90;;;;;;4897633;29;20025;-76
2022/10/14 08:58:40;;;;;;;63.67;31.67;;;17.60;99.90;;;;;;4896219;29;20029;-76
2022/10/14 09:01:20;;;;;;;54.30;31.60;;;17.70;99.90;;;;;;4897235;29;20025;-77
2022/10/14 09:04:11;;;;;;;53.78;29.77;;;17.70;99.90;;;;;;4880247;29;20028;-78
2022/10/14 09:06:41;;;;;;;59.58;31.80;;;17.70;99.90;;;;;;4896798;29;20044;-77
2022/10/14 09:09:22;;;;;;;55.95;30.30;;;17.80;99.90;;;;;;4897460;29;20025;-77
2022/10/14 09:12:05;;;;;;;60.50;30.35;;;17.80;99.90;;;;;;4880599;29;20057;-77
2022/10/14 09:14:38;;;;;;;55.67;29.52;;;17.80;99.90;;;;;;4896544;29;20104;-77
2022/10/14 09:17:14;;;;;;;57.95;29.08;;;17.80;99.90;;;;;;4897201;29;20036;-77
2022/10/14 09:19:57;;;;;;;56.25;28.30;;;17.90;99.90;;;;;;4897728;29;20059;-78
2022/10/14 09:22:23;;;;;;;62.28;30.73;;;17.90;99.90;;;;;;4896757;29;20020;-77
2022/10/14 09:24:49;;;;;;;52.53;29.90;;;18.00;99.90;;;;;;4896552;29;20522;-77
2022/10/14 09:27:17;;;;;;;52.20;27.80;;;18.00;99.90;;;;;;4896946;29;20055;-78
2022/10/14 09:30:08;;;;;;;54.80;28.90;;;18.00;99.90;;;;;;4877878;29;20033;-77
2022/10/14 09:32:42;;;;;;;55.17;29.42;;;18.10;99.90;;;;;;4882518;29;20115;-77
2022/10/14 09:35:14;;;;;;;51.55;28.77;;;18.00;99.90;;;;;;4899414;29;20483;-77
2022/10/14 09:37:41;;;;;;;;;;;18.10;99.90;;;;;;4900105;29;20028;-77
2022/10/14 09:40:29;;;;;;;47.95;27.10;;;18.00;99.90;;;;;;4882748;29;20401;-77
2022/10/14 09:43:07;;;;;;;51.45;28.77;;;18.10;99.90;;;;;;4899499;29;20029;-77
2022/10/14 09:45:57;;;;;;;56.50;28.67;;;18.10;99.90;;;;;;4899416;29;20032;-78
2022/10/14 09:48:30;;;;;;;56.08;31.08;;;18.20;99.90;;;;;;4899547;29;20459;-76
2022/10/14 09:50:58;;;;;;;52.55;30.98;;;18.20;99.90;;;;;;4899328;29;20024;-77
2022/10/14 09:53:44;;;;;;;53.10;29.30;;;18.20;99.90;;;;;;4898828;29;20025;-77
2022/10/14 09:56:11;;;;;;;55.78;30.65;;;18.20;99.90;;;;;;4880802;29;20025;-77
2022/10/14 09:58:54;;;;;;;60.03;30.15;;;18.30;99.90;;;;;;4897750;29;20050;-76
2022/10/14 10:01:31;;;;;;;63.92;32.70;;;18.30;99.90;;;;;;4897381;29;20028;-77
2022/10/14 10:04:26;;;;;;;54.15;29.75;;;18.40;99.90;;;;;;4879014;29;20112;-77
2022/10/14 10:06:55;;;;;;;56.25;29.20;;;18.40;99.90;;;;;;4895326;29;20053;-77
2022/10/14 10:09:21;;;;;;;53.85;30.90;;;18.50;99.90;;;;;;4894335;29;20032;-76
2022/10/14 10:11:48;;;;;;;60.15;34.08;;;18.40;99.90;;;;;;4896871;29;20104;-77
2022/10/14 10:14:15;;;;;;;53.33;31.98;;;18.50;99.90;;;;;;4896776;29;20373;-78
2022/10/14 10:16:41;;;;;;;51.13;28.88;;;18.60;99.90;;;;;;4896200;29;20036;-76
2022/10/14 10:19:54;;;;;;;58.28;31.38;;;18.60;99.90;;;;;;4896054;29;20088;-75
2022/10/14 10:22:21;;;;;;;53.67;30.40;;;18.70;99.90;;;;;;4842154;29;20445;-76
2022/10/14 10:24:49;;;;;;;58.67;30.67;;;18.90;99.90;;;;;;4892609;29;20021;-76
2022/10/14 10:27:29;;;;;;;49.90;28.67;;;18.90;99.90;;;;;;4896368;29;20028;-76
2022/10/14 10:29:55;;;;;;;48.30;27.75;;;18.90;99.90;;;;;;4895300;29;20050;-76
2022/10/14 10:32:30;;;;;;;50.67;28.23;;;19.00;99.90;;;;;;4896998;29;20507;-77
2022/10/14 10:35:25;;;;;;;48.58;26.88;;;19.10;99.90;;;;;;4881677;29;20492;-76
2022/10/14 10:38:19;;;;;;;46.83;27.58;;;19.10;99.90;;;;;;4866181;29;20043;-76
2022/10/14 10:40:57;;;;;;;48.67;27.25;;;19.20;99.90;;;;;;4898661;29;20032;-76
2022/10/14 10:43:43;;;;;;;48.58;26.55;;;19.30;99.90;;;;;;4898674;29;20032;-76
2022/10/14 10:46:27;;;;;;;43.83;25.55;;;19.30;99.90;;;;;;4898451;29;20056;-76
2022/10/14 10:49:45;;;;;;;44.03;25.67;;;19.40;99.90;;;;;;4898326;29;20035;-76
2022/10/14 10:52:34;;;;;;;46.75;25.48;;;19.40;99.90;;;;;;4856395;29;20192;-76
2022/10/14 10:55:03;;;;;;;44.25;24.95;;;19.40;99.90;;;;;;4879657;29;20044;-77
2022/10/14 10:57:39;;;;;;;40.75;22.90;;;19.40;99.90;;;;;;4884784;29;20025;-76
2022/10/14 11:00:11;;;;;;;42.90;24.15;;;19.50;99.90;;;;;;4896428;29;20039;-76
2022/10/14 11:02:42;;;;;;;41.17;22.42;;;19.50;99.90;;;;;;4896440;29;20031;-76
2022/10/14 11:05:25;;;;;;;37.50;23.45;;;19.60;99.90;;;;;;4876949;29;20029;-76
2022/10/14 11:14:47;;;;;;;40.33;22.17;;;19.70;99.90;;;;;;4895183;29;20080;-76
2022/10/14 11:17:29;;;;;;;41.45;22.92;;;19.70;99.90;;;;;;4831804;29;20051;-76
2022/10/14 11:20:25;;;;;;;38.40;22.75;;;19.80;99.90;;;;;;4894674;29;20032;-77
2022/10/14 11:23:30;;;;;;;44.25;24.48;;;19.90;99.90;;;;;;4877956;29;20040;-77
2022/10/14 11:26:10;;;;;;;38.65;23.98;;;19.90;99.90;;;;;;4871481;29;20041;-77
2022/10/14 11:29:22;;;;;;;42.88;22.02;;;19.90;99.90;;;;;;4896770;29;20107;-77
2022/10/14 11:32:05;;;;;;;41.10;22.42;;;20.00;99.90;;;;;;4854934;29;20040;-77
2022/10/14 11:34:46;;;;;;;39.67;23.00;;;20.00;99.90;;;;;;4896702;29;20024;-77
2022/10/14 11:37:24;;;;;;;44.75;23.83;;;20.00;99.90;;;;;;4896191;29;20021;-77
2022/10/14 11:40:11;;;;;;;49.80;24.45;;;20.00;99.90;;;;;;4895947;29;20141;-76
2022/10/14 11:42:48;;;;;;;39.78;21.10;;;20.10;99.90;;;;;;4896371;29;20052;-76
2022/10/14 11:45:17;;;;;;;40.83;22.25;;;20.00;99.90;;;;;;4896318;29;20024;-77
2022/10/14 11:47:47;;;;;;;41.10;22.23;;;20.10;99.90;;;;;;4896338;29;20522;-77
2022/10/14 11:50:15;;;;;;;38.60;22.77;;;20.10;99.90;;;;;;4895973;29;20021;-77
2022/10/14 11:53:16;;;;;;;36.65;20.75;;;20.10;99.90;;;;;;4896188;29;20029;-77
2022/10/14 11:55:48;;;;;;;32.50;19.63;;;20.10;99.90;;;;;;4893376;29;20070;-76
2022/10/14 11:58:19;;;;;;;60.22;30.10;;;20.10;99.90;;;;;;4896473;29;20029;-76
2022/10/14 12:01:11;;;;;;;64.10;31.10;;;20.10;99.90;;;;;;4895442;29;20035;-77
2022/10/14 12:03:36;;;;;;;;;;;20.10;99.90;;;;;;4891035;29;20566;-77
2022/10/14 12:06:17;;;;;;;67.40;34.35;;;20.10;99.90;;;;;;4895988;29;19954;-77
2022/10/14 12:08:54;;;;;;;73.82;37.05;;;20.10;99.90;;;;;;4896105;29;20067;-76
2022/10/14 12:11:34;;;;;;;76.47;38.35;;;20.00;99.90;;;;;;4895869;29;20033;-76
2022/10/14 12:14:42;;;;;;;76.32;38.63;;;20.00;99.90;;;;;;4895798;29;20445;-76
2022/10/14 12:17:30;;;;;;;76.65;37.20;;;20.00;99.90;;;;;;4876089;29;20057;-77
2022/10/14 12:20:00;;;;;;;78.03;39.20;;;20.00;99.90;;;;;;4877672;29;20036;-76
2022/10/14 12:22:30;;;;;;;82.88;40.05;;;20.00;99.90;;;;;;4877151;29;20036;-76
2022/10/14 12:25:02;;;;;;;82.78;39.35;;;20.00;99.90;;;;;;4892044;29;20116;-77
2022/10/14 12:27:29;;;;;;;74.03;38.05;;;20.00;99.90;;;;;;4899691;29;20021;-77
2022/10/14 12:29:57;;;;;;;75.25;38.53;;;20.00;99.90;;;;;;4899700;29;20067;-76
2022/10/14 12:32:30;;;;;;;72.95;37.92;;;20.10;99.90;;;;;;4899246;29;20021;-77
2022/10/14 12:34:57;;;;;;;77.30;38.08;;;20.10;99.90;;;;;;4899831;29;20044;-77
2022/10/14 12:37:23;;;;;;;72.68;36.97;;;20.20;99.90;;;;;;4899478;29;20025;-77
2022/10/14 12:39:53;;;;;;;72.20;36.28;;;20.20;99.90;;;;;;4882689;29;20032;-76
2022/10/14 12:42:20;;;;;;;74.60;37.22;;;20.20;99.90;;;;;;4881584;29;20032;-76
2022/10/14 12:44:47;;;;;;;68.07;35.13;;;20.30;99.90;;;;;;4899271;29;20107;-76
2022/10/14 12:47:27;;;;;;;68.07;33.95;;;20.30;99.90;;;;;;4898453;29;20042;-77
2022/10/14 12:49:55;;;;;;;60.35;32.75;;;20.30;99.90;;;;;;4898302;29;20036;-77
2022/10/14 12:52:28;;;;;;;67.47;31.77;;;20.40;99.90;;;;;;4898922;29;20040;-77
2022/10/14 12:54:54;;;;;;;58.88;31.38;;;20.40;99.90;;;;;;4898553;29;20476;-76